sensor_id;sensor_type;location;lat;lon;timestamp;P1;durP1;ratioP1;P2;durP2;ratioP2
33563;SDS011;19894;48.452;11.494;2022-07-23T00:00:49;2.45;;;2.25;;
33563;SDS011;19894;48.452;11.494;2022-07-23T00:03:14;2.78;;;2.15;;
33563;SDS011;19894;48.452;11.494;2022-07-23T00:05:40;2.80;;;1.85;;
33563;SDS011;19894;48.452;11.494;2022-07-23T00:08:06;2.33;;;2.13;;
33563;SDS011;19894;48.452;11.494;2022-07-23T00:10:32;2.05;;;1.88;;
33563;SDS011;19894;48.452;11.494;2022-07-23T00:12:58;2.25;;;2.05;;
33563;SDS011;19894;48.452;11.494;2022-07-23T00:15:23;1.88;;;1.73;;
33563;SDS011;19894;48.452;11.494;2022-07-23T00:17:49;2.20;;;2.00;;
33563;SDS011;19894;48.452;11.494;2022-07-23T00:20:15;2.25;;;1.95;;
33563;SDS011;19894;48.452;11.494;2022-07-23T00:25:14;2.00;;;1.85;;
33563;SDS011;19894;48.452;11.494;2022-07-23T00:27:40;2.40;;;2.20;;
33563;SDS011;19894;48.452;11.494;2022-07-23T00:30:06;2.33;;;2.13;;
33563;SDS011;19894;48.452;11.494;2022-07-23T00:32:32;2.50;;;2.30;;
33563;SDS011;19894;48.452;11.494;2022-07-23T00:34:58;2.50;;;2.30;;
33563;SDS011;19894;48.452;11.494;2022-07-23T00:37:23;2.72;;;2.22;;
33563;SDS011;19894;48.452;11.494;2022-07-23T00:39:49;2.13;;;1.92;;
33563;SDS011;19894;48.452;11.494;2022-07-23T00:42:14;2.42;;;2.22;;
33563;SDS011;19894;48.452;11.494;2022-07-23T00:44:40;1.95;;;1.85;;
33563;SDS011;19894;48.452;11.494;2022-07-23T00:47:05;2.35;;;2.15;;
33563;SDS011;19894;48.452;11.494;2022-07-23T00:49:31;2.58;;;2.38;;
33563;SDS011;19894;48.452;11.494;2022-07-23T00:51:57;2.45;;;2.20;;
33563;SDS011;19894;48.452;11.494;2022-07-23T00:54:26;2.40;;;2.20;;
33563;SDS011;19894;48.452;11.494;2022-07-23T00:56:52;2.22;;;2.03;;
33563;SDS011;19894;48.452;11.494;2022-07-23T00:59:18;2.50;;;2.30;;
33563;SDS011;19894;48.452;11.494;2022-07-23T01:01:45;2.40;;;2.20;;
33563;SDS011;19894;48.452;11.494;2022-07-23T01:04:13;2.58;;;2.38;;
33563;SDS011;19894;48.452;11.494;2022-07-23T01:06:40;2.28;;;2.10;;
33563;SDS011;19894;48.452;11.494;2022-07-23T01:09:06;2.42;;;2.22;;
33563;SDS011;19894;48.452;11.494;2022-07-23T01:11:35;2.67;;;2.35;;
33563;SDS011;19894;48.452;11.494;2022-07-23T01:14:08;2.13;;;1.92;;
33563;SDS011;19894;48.452;11.494;2022-07-23T01:16:37;2.25;;;2.05;;
33563;SDS011;19894;48.452;11.494;2022-07-23T01:19:03;2.40;;;2.20;;
33563;SDS011;19894;48.452;11.494;2022-07-23T01:21:31;2.17;;;1.98;;
33563;SDS011;19894;48.452;11.494;2022-07-23T01:24:01;2.10;;;1.90;;
33563;SDS011;19894;48.452;11.494;2022-07-23T01:26:27;2.10;;;1.92;;
33563;SDS011;19894;48.452;11.494;2022-07-23T01:28:53;2.55;;;2.35;;
33563;SDS011;19894;48.452;11.494;2022-07-23T01:31:18;2.45;;;2.25;;
33563;SDS011;19894;48.452;11.494;2022-07-23T01:33:44;2.65;;;2.45;;
33563;SDS011;19894;48.452;11.494;2022-07-23T01:36:10;2.00;;;1.90;;
33563;SDS011;19894;48.452;11.494;2022-07-23T01:38:36;2.05;;;1.85;;
33563;SDS011;19894;48.452;11.494;2022-07-23T01:41:02;2.08;;;1.95;;
33563;SDS011;19894;48.452;11.494;2022-07-23T01:43:27;1.85;;;1.75;;
33563;SDS011;19894;48.452;11.494;2022-07-23T01:45:53;1.70;;;1.60;;
33563;SDS011;19894;48.452;11.494;2022-07-23T01:48:18;1.60;;;1.50;;
33563;SDS011;19894;48.452;11.494;2022-07-23T01:50:45;2.33;;;2.13;;
33563;SDS011;19894;48.452;11.494;2022-07-23T01:53:12;2.40;;;2.20;;
33563;SDS011;19894;48.452;11.494;2022-07-23T01:55:37;1.83;;;1.73;;
33563;SDS011;19894;48.452;11.494;2022-07-23T01:58:03;1.92;;;1.70;;
33563;SDS011;19894;48.452;11.494;2022-07-23T02:00:30;1.65;;;1.55;;
33563;SDS011;19894;48.452;11.494;2022-07-23T02:02:56;1.58;;;1.48;;
33563;SDS011;19894;48.452;11.494;2022-07-23T02:05:23;2.83;;;2.20;;
33563;SDS011;19894;48.452;11.494;2022-07-23T02:07:49;1.67;;;1.58;;
33563;SDS011;19894;48.452;11.494;2022-07-23T02:10:15;2.08;;;1.88;;
33563;SDS011;19894;48.452;11.494;2022-07-23T02:12:41;2.65;;;1.83;;
33563;SDS011;19894;48.452;11.494;2022-07-23T02:15:06;3.42;;;1.73;;
33563;SDS011;19894;48.452;11.494;2022-07-23T02:17:32;1.60;;;1.50;;
33563;SDS011;19894;48.452;11.494;2022-07-23T02:19:58;1.80;;;1.70;;
33563;SDS011;19894;48.452;11.494;2022-07-23T02:22:24;1.63;;;1.52;;
33563;SDS011;19894;48.452;11.494;2022-07-23T02:24:50;1.80;;;1.70;;
33563;SDS011;19894;48.452;11.494;2022-07-23T02:27:15;2.17;;;1.98;;
33563;SDS011;19894;48.452;11.494;2022-07-23T02:29:41;1.88;;;1.50;;
33563;SDS011;19894;48.452;11.494;2022-07-23T02:32:07;1.55;;;1.45;;
33563;SDS011;19894;48.452;11.494;2022-07-23T02:34:32;1.98;;;1.88;;
33563;SDS011;19894;48.452;11.494;2022-07-23T02:36:58;1.98;;;1.88;;
33563;SDS011;19894;48.452;11.494;2022-07-23T02:39:23;1.70;;;1.60;;
33563;SDS011;19894;48.452;11.494;2022-07-23T02:41:49;1.65;;;1.55;;
33563;SDS011;19894;48.452;11.494;2022-07-23T02:44:15;1.50;;;1.40;;
33563;SDS011;19894;48.452;11.494;2022-07-23T02:46:40;1.83;;;1.73;;
33563;SDS011;19894;48.452;11.494;2022-07-23T02:49:06;1.95;;;1.75;;
33563;SDS011;19894;48.452;11.494;2022-07-23T02:51:31;1.70;;;1.60;;
33563;SDS011;19894;48.452;11.494;2022-07-23T02:53:57;1.48;;;1.38;;
33563;SDS011;19894;48.452;11.494;2022-07-23T02:56:22;1.55;;;1.45;;
33563;SDS011;19894;48.452;11.494;2022-07-23T02:58:48;1.80;;;1.60;;
33563;SDS011;19894;48.452;11.494;2022-07-23T03:01:13;1.70;;;1.60;;
33563;SDS011;19894;48.452;11.494;2022-07-23T03:03:39;1.50;;;1.40;;
33563;SDS011;19894;48.452;11.494;2022-07-23T03:06:04;2.05;;;1.58;;
33563;SDS011;19894;48.452;11.494;2022-07-23T03:08:30;1.63;;;1.52;;
33563;SDS011;19894;48.452;11.494;2022-07-23T03:10:56;1.63;;;1.52;;
33563;SDS011;19894;48.452;11.494;2022-07-23T03:13:21;1.60;;;1.50;;
33563;SDS011;19894;48.452;11.494;2022-07-23T03:15:47;1.27;;;1.17;;
33563;SDS011;19894;48.452;11.494;2022-07-23T03:18:13;1.55;;;1.45;;
33563;SDS011;19894;48.452;11.494;2022-07-23T03:20:38;1.73;;;1.63;;
33563;SDS011;19894;48.452;11.494;2022-07-23T03:23:04;2.50;;;2.30;;
33563;SDS011;19894;48.452;11.494;2022-07-23T03:25:29;1.40;;;1.30;;
33563;SDS011;19894;48.452;11.494;2022-07-23T03:27:55;1.90;;;1.70;;
33563;SDS011;19894;48.452;11.494;2022-07-23T03:30:20;1.67;;;1.45;;
33563;SDS011;19894;48.452;11.494;2022-07-23T03:32:46;1.42;;;1.33;;
33563;SDS011;19894;48.452;11.494;2022-07-23T03:35:11;1.65;;;1.55;;
33563;SDS011;19894;48.452;11.494;2022-07-23T03:37:37;1.50;;;1.40;;
33563;SDS011;19894;48.452;11.494;2022-07-23T03:40:03;1.13;;;1.05;;
33563;SDS011;19894;48.452;11.494;2022-07-23T03:42:29;1.30;;;1.20;;
33563;SDS011;19894;48.452;11.494;2022-07-23T03:44:54;1.40;;;1.30;;
33563;SDS011;19894;48.452;11.494;2022-07-23T03:47:20;1.40;;;1.30;;
33563;SDS011;19894;48.452;11.494;2022-07-23T03:49:47;2.03;;;1.52;;
33563;SDS011;19894;48.452;11.494;2022-07-23T03:52:13;1.58;;;1.10;;
33563;SDS011;19894;48.452;11.494;2022-07-23T03:54:39;1.15;;;1.05;;
33563;SDS011;19894;48.452;11.494;2022-07-23T03:57:04;1.13;;;1.02;;
33563;SDS011;19894;48.452;11.494;2022-07-23T03:59:30;1.77;;;1.67;;
33563;SDS011;19894;48.452;11.494;2022-07-23T04:01:56;1.40;;;1.30;;
33563;SDS011;19894;48.452;11.494;2022-07-23T04:04:22;1.50;;;1.40;;
33563;SDS011;19894;48.452;11.494;2022-07-23T04:06:47;2.47;;;1.40;;
33563;SDS011;19894;48.452;11.494;2022-07-23T04:09:13;1.08;;;0.98;;
33563;SDS011;19894;48.452;11.494;2022-07-23T04:11:38;1.35;;;1.25;;
33563;SDS011;19894;48.452;11.494;2022-07-23T04:14:04;1.55;;;1.45;;
33563;SDS011;19894;48.452;11.494;2022-07-23T04:16:30;1.42;;;1.33;;
33563;SDS011;19894;48.452;11.494;2022-07-23T04:18:58;1.10;;;1.00;;
33563;SDS011;19894;48.452;11.494;2022-07-23T04:21:24;1.30;;;1.20;;
33563;SDS011;19894;48.452;11.494;2022-07-23T04:23:50;1.10;;;1.00;;
33563;SDS011;19894;48.452;11.494;2022-07-23T04:26:15;0.90;;;0.90;;
33563;SDS011;19894;48.452;11.494;2022-07-23T04:28:41;1.00;;;0.95;;
33563;SDS011;19894;48.452;11.494;2022-07-23T04:31:06;1.02;;;1.00;;
33563;SDS011;19894;48.452;11.494;2022-07-23T04:33:32;1.55;;;1.45;;
33563;SDS011;19894;48.452;11.494;2022-07-23T04:35:58;1.20;;;1.10;;
33563;SDS011;19894;48.452;11.494;2022-07-23T04:38:23;0.98;;;0.88;;
33563;SDS011;19894;48.452;11.494;2022-07-23T04:40:49;1.00;;;0.90;;
33563;SDS011;19894;48.452;11.494;2022-07-23T04:43:15;1.35;;;1.25;;
33563;SDS011;19894;48.452;11.494;2022-07-23T04:45:40;1.10;;;1.00;;
33563;SDS011;19894;48.452;11.494;2022-07-23T04:48:06;0.95;;;0.95;;
33563;SDS011;19894;48.452;11.494;2022-07-23T04:50:31;1.20;;;1.10;;
33563;SDS011;19894;48.452;11.494;2022-07-23T04:52:57;1.25;;;1.15;;
33563;SDS011;19894;48.452;11.494;2022-07-23T04:55:23;1.38;;;1.27;;
33563;SDS011;19894;48.452;11.494;2022-07-23T04:57:49;0.73;;;0.73;;
33563;SDS011;19894;48.452;11.494;2022-07-23T05:00:15;1.25;;;1.15;;
33563;SDS011;19894;48.452;11.494;2022-07-23T05:02:40;1.35;;;1.25;;
33563;SDS011;19894;48.452;11.494;2022-07-23T05:05:06;1.10;;;1.00;;
33563;SDS011;19894;48.452;11.494;2022-07-23T05:07:32;0.93;;;0.90;;
33563;SDS011;19894;48.452;11.494;2022-07-23T05:09:58;1.10;;;1.00;;
33563;SDS011;19894;48.452;11.494;2022-07-23T05:12:23;1.20;;;1.10;;
33563;SDS011;19894;48.452;11.494;2022-07-23T05:14:49;1.13;;;1.02;;
33563;SDS011;19894;48.452;11.494;2022-07-23T05:17:14;1.15;;;1.02;;
33563;SDS011;19894;48.452;11.494;2022-07-23T05:19:40;0.80;;;0.80;;
33563;SDS011;19894;48.452;11.494;2022-07-23T05:22:06;1.00;;;0.90;;
33563;SDS011;19894;48.452;11.494;2022-07-23T05:24:31;1.10;;;1.00;;
33563;SDS011;19894;48.452;11.494;2022-07-23T05:26:57;1.13;;;1.02;;
33563;SDS011;19894;48.452;11.494;2022-07-23T05:29:22;0.90;;;0.90;;
33563;SDS011;19894;48.452;11.494;2022-07-23T05:31:48;0.80;;;0.80;;
33563;SDS011;19894;48.452;11.494;2022-07-23T05:34:13;0.95;;;0.80;;
33563;SDS011;19894;48.452;11.494;2022-07-23T05:36:39;1.10;;;0.95;;
33563;SDS011;19894;48.452;11.494;2022-07-23T05:39:04;0.82;;;0.82;;
33563;SDS011;19894;48.452;11.494;2022-07-23T05:41:30;1.25;;;1.15;;
33563;SDS011;19894;48.452;11.494;2022-07-23T05:43:56;0.75;;;0.70;;
33563;SDS011;19894;48.452;11.494;2022-07-23T05:46:21;1.33;;;1.23;;
33563;SDS011;19894;48.452;11.494;2022-07-23T05:48:47;0.98;;;0.90;;
33563;SDS011;19894;48.452;11.494;2022-07-23T05:51:19;1.15;;;1.05;;
33563;SDS011;19894;48.452;11.494;2022-07-23T05:53:45;0.88;;;0.88;;
33563;SDS011;19894;48.452;11.494;2022-07-23T05:56:11;0.70;;;0.70;;
33563;SDS011;19894;48.452;11.494;2022-07-23T05:58:37;0.85;;;0.85;;
33563;SDS011;19894;48.452;11.494;2022-07-23T06:01:02;0.95;;;0.95;;
33563;SDS011;19894;48.452;11.494;2022-07-23T06:03:28;1.05;;;0.80;;
33563;SDS011;19894;48.452;11.494;2022-07-23T06:05:53;0.85;;;0.85;;
33563;SDS011;19894;48.452;11.494;2022-07-23T06:08:19;1.10;;;1.00;;
33563;SDS011;19894;48.452;11.494;2022-07-23T06:10:44;0.60;;;0.60;;
33563;SDS011;19894;48.452;11.494;2022-07-23T06:13:10;1.27;;;1.17;;
33563;SDS011;19894;48.452;11.494;2022-07-23T06:15:36;0.90;;;0.90;;
33563;SDS011;19894;48.452;11.494;2022-07-23T06:18:01;0.63;;;0.63;;
33563;SDS011;19894;48.452;11.494;2022-07-23T06:20:27;0.80;;;0.80;;
33563;SDS011;19894;48.452;11.494;2022-07-23T06:22:53;0.80;;;0.73;;
33563;SDS011;19894;48.452;11.494;2022-07-23T06:25:18;0.80;;;0.80;;
33563;SDS011;19894;48.452;11.494;2022-07-23T06:27:45;0.82;;;0.82;;
33563;SDS011;19894;48.452;11.494;2022-07-23T06:30:11;0.60;;;0.60;;
33563;SDS011;19894;48.452;11.494;2022-07-23T06:32:37;0.70;;;0.70;;
33563;SDS011;19894;48.452;11.494;2022-07-23T06:35:03;0.75;;;0.75;;
33563;SDS011;19894;48.452;11.494;2022-07-23T06:37:29;0.80;;;0.80;;
33563;SDS011;19894;48.452;11.494;2022-07-23T06:39:54;0.70;;;0.70;;
33563;SDS011;19894;48.452;11.494;2022-07-23T06:42:20;1.27;;;1.17;;
33563;SDS011;19894;48.452;11.494;2022-07-23T06:44:46;0.70;;;0.70;;
33563;SDS011;19894;48.452;11.494;2022-07-23T06:47:12;0.70;;;0.70;;
33563;SDS011;19894;48.452;11.494;2022-07-23T06:49:37;0.93;;;0.80;;
33563;SDS011;19894;48.452;11.494;2022-07-23T06:52:05;0.70;;;0.70;;
33563;SDS011;19894;48.452;11.494;2022-07-23T06:54:31;0.68;;;0.68;;
33563;SDS011;19894;48.452;11.494;2022-07-23T06:56:57;1.33;;;1.23;;
33563;SDS011;19894;48.452;11.494;2022-07-23T06:59:22;1.25;;;1.15;;
33563;SDS011;19894;48.452;11.494;2022-07-23T07:01:48;0.60;;;0.60;;
33563;SDS011;19894;48.452;11.494;2022-07-23T07:04:14;1.05;;;0.95;;
33563;SDS011;19894;48.452;11.494;2022-07-23T07:06:39;1.08;;;0.90;;
33563;SDS011;19894;48.452;11.494;2022-07-23T07:09:05;0.80;;;0.80;;
33563;SDS011;19894;48.452;11.494;2022-07-23T07:11:30;1.00;;;0.70;;
33563;SDS011;19894;48.452;11.494;2022-07-23T07:13:56;1.08;;;0.90;;
33563;SDS011;19894;48.452;11.494;2022-07-23T07:16:21;1.10;;;1.00;;
33563;SDS011;19894;48.452;11.494;2022-07-23T07:18:47;1.35;;;1.25;;
33563;SDS011;19894;48.452;11.494;2022-07-23T07:21:12;1.20;;;0.90;;
33563;SDS011;19894;48.452;11.494;2022-07-23T07:23:38;1.08;;;0.95;;
33563;SDS011;19894;48.452;11.494;2022-07-23T07:26:04;0.70;;;0.70;;
33563;SDS011;19894;48.452;11.494;2022-07-23T07:28:29;1.10;;;1.00;;
33563;SDS011;19894;48.452;11.494;2022-07-23T07:30:55;1.00;;;1.00;;
33563;SDS011;19894;48.452;11.494;2022-07-23T07:33:21;0.85;;;0.85;;
33563;SDS011;19894;48.452;11.494;2022-07-23T07:35:46;0.95;;;0.90;;
33563;SDS011;19894;48.452;11.494;2022-07-23T07:38:12;0.70;;;0.70;;
33563;SDS011;19894;48.452;11.494;2022-07-23T07:40:38;1.17;;;0.95;;
33563;SDS011;19894;48.452;11.494;2022-07-23T07:43:03;0.95;;;0.85;;
33563;SDS011;19894;48.452;11.494;2022-07-23T07:45:29;1.33;;;1.23;;
33563;SDS011;19894;48.452;11.494;2022-07-23T07:47:55;1.27;;;1.17;;
33563;SDS011;19894;48.452;11.494;2022-07-23T07:50:21;1.10;;;1.00;;
33563;SDS011;19894;48.452;11.494;2022-07-23T07:52:47;0.93;;;0.90;;
33563;SDS011;19894;48.452;11.494;2022-07-23T07:55:13;1.30;;;1.15;;
33563;SDS011;19894;48.452;11.494;2022-07-23T07:57:39;0.90;;;0.90;;
33563;SDS011;19894;48.452;11.494;2022-07-23T08:00:06;0.70;;;0.70;;
33563;SDS011;19894;48.452;11.494;2022-07-23T08:02:40;0.88;;;0.88;;
33563;SDS011;19894;48.452;11.494;2022-07-23T08:05:06;1.23;;;1.10;;
33563;SDS011;19894;48.452;11.494;2022-07-23T08:07:31;1.23;;;0.98;;
33563;SDS011;19894;48.452;11.494;2022-07-23T08:09:57;1.10;;;1.00;;
33563;SDS011;19894;48.452;11.494;2022-07-23T08:12:22;0.80;;;0.80;;
33563;SDS011;19894;48.452;11.494;2022-07-23T08:14:48;1.10;;;1.00;;
33563;SDS011;19894;48.452;11.494;2022-07-23T08:17:14;2.83;;;1.33;;
33563;SDS011;19894;48.452;11.494;2022-07-23T08:19:39;0.95;;;0.90;;
33563;SDS011;19894;48.452;11.494;2022-07-23T08:22:05;1.23;;;1.00;;
33563;SDS011;19894;48.452;11.494;2022-07-23T08:24:30;1.20;;;1.10;;
33563;SDS011;19894;48.452;11.494;2022-07-23T08:26:56;0.98;;;0.90;;
33563;SDS011;19894;48.452;11.494;2022-07-23T08:29:21;1.50;;;1.23;;
33563;SDS011;19894;48.452;11.494;2022-07-23T08:31:47;1.20;;;1.10;;
33563;SDS011;19894;48.452;11.494;2022-07-23T08:34:12;0.90;;;0.90;;
33563;SDS011;19894;48.452;11.494;2022-07-23T08:36:38;1.10;;;1.00;;
33563;SDS011;19894;48.452;11.494;2022-07-23T08:39:03;0.93;;;0.88;;
33563;SDS011;19894;48.452;11.494;2022-07-23T08:41:29;1.02;;;0.93;;
33563;SDS011;19894;48.452;11.494;2022-07-23T08:43:54;0.95;;;0.95;;
33563;SDS011;19894;48.452;11.494;2022-07-23T08:46:20;1.35;;;1.25;;
33563;SDS011;19894;48.452;11.494;2022-07-23T08:48:47;0.80;;;0.80;;
33563;SDS011;19894;48.452;11.494;2022-07-23T08:51:14;1.33;;;1.23;;
33563;SDS011;19894;48.452;11.494;2022-07-23T08:53:39;0.80;;;0.73;;
33563;SDS011;19894;48.452;11.494;2022-07-23T08:56:06;1.05;;;1.00;;
33563;SDS011;19894;48.452;11.494;2022-07-23T08:58:32;1.10;;;1.00;;
33563;SDS011;19894;48.452;11.494;2022-07-23T09:00:58;1.10;;;1.00;;
33563;SDS011;19894;48.452;11.494;2022-07-23T09:03:26;0.93;;;0.90;;
33563;SDS011;19894;48.452;11.494;2022-07-23T09:05:53;0.93;;;0.93;;
33563;SDS011;19894;48.452;11.494;2022-07-23T09:08:23;1.27;;;1.17;;
33563;SDS011;19894;48.452;11.494;2022-07-23T09:11:03;0.80;;;0.80;;
33563;SDS011;19894;48.452;11.494;2022-07-23T09:13:34;1.42;;;1.33;;
33563;SDS011;19894;48.452;11.494;2022-07-23T09:16:07;1.55;;;1.45;;
33563;SDS011;19894;48.452;11.494;2022-07-23T09:18:39;1.10;;;1.00;;
33563;SDS011;19894;48.452;11.494;2022-07-23T09:21:13;1.00;;;0.90;;
33563;SDS011;19894;48.452;11.494;2022-07-23T09:24:23;1.25;;;1.15;;
33563;SDS011;19894;48.452;11.494;2022-07-23T09:26:37;0.98;;;0.88;;
33563;SDS011;19894;48.452;11.494;2022-07-23T09:29:12;0.82;;;0.73;;
33563;SDS011;19894;48.452;11.494;2022-07-23T09:34:23;1.05;;;1.00;;
33563;SDS011;19894;48.452;11.494;2022-07-23T09:36:57;1.00;;;1.00;;
33563;SDS011;19894;48.452;11.494;2022-07-23T09:41:53;1.02;;;0.98;;
33563;SDS011;19894;48.452;11.494;2022-07-23T09:44:20;0.90;;;0.90;;
33563;SDS011;19894;48.452;11.494;2022-07-23T09:46:50;1.38;;;1.27;;
33563;SDS011;19894;48.452;11.494;2022-07-23T09:49:22;1.50;;;1.40;;
33563;SDS011;19894;48.452;11.494;2022-07-23T09:57:03;0.98;;;0.98;;
33563;SDS011;19894;48.452;11.494;2022-07-23T09:59:30;1.58;;;1.35;;
33563;SDS011;19894;48.452;11.494;2022-07-23T10:01:59;1.05;;;0.85;;
33563;SDS011;19894;48.452;11.494;2022-07-23T10:04:25;1.25;;;1.02;;
33563;SDS011;19894;48.452;11.494;2022-07-23T10:06:54;1.08;;;1.00;;
33563;SDS011;19894;48.452;11.494;2022-07-23T10:09:29;0.70;;;0.70;;
33563;SDS011;19894;48.452;11.494;2022-07-23T10:11:59;1.05;;;0.93;;
33563;SDS011;19894;48.452;11.494;2022-07-23T10:14:49;1.33;;;1.23;;
33563;SDS011;19894;48.452;11.494;2022-07-23T10:17:16;1.10;;;1.05;;
33563;SDS011;19894;48.452;11.494;2022-07-23T10:19:42;1.27;;;1.17;;
33563;SDS011;19894;48.452;11.494;2022-07-23T10:22:18;1.20;;;1.10;;
33563;SDS011;19894;48.452;11.494;2022-07-23T10:36:15;1.33;;;1.23;;
33563;SDS011;19894;48.452;11.494;2022-07-23T10:38:48;2.05;;;1.48;;
33563;SDS011;19894;48.452;11.494;2022-07-23T10:41:34;1.23;;;1.13;;
33563;SDS011;19894;48.452;11.494;2022-07-23T10:44:11;1.08;;;0.98;;
33563;SDS011;19894;48.452;11.494;2022-07-23T10:49:43;1.40;;;1.30;;
33563;SDS011;19894;48.452;11.494;2022-07-23T10:52:15;1.70;;;1.48;;
33563;SDS011;19894;48.452;11.494;2022-07-23T10:54:43;1.40;;;1.30;;
33563;SDS011;19894;48.452;11.494;2022-07-23T10:57:11;1.55;;;1.45;;
33563;SDS011;19894;48.452;11.494;2022-07-23T11:02:25;1.42;;;1.33;;
33563;SDS011;19894;48.452;11.494;2022-07-23T11:04:52;0.80;;;0.80;;
33563;SDS011;19894;48.452;11.494;2022-07-23T11:07:18;1.25;;;1.15;;
33563;SDS011;19894;48.452;11.494;2022-07-23T11:09:44;1.63;;;1.52;;
33563;SDS011;19894;48.452;11.494;2022-07-23T11:14:59;1.42;;;1.20;;
33563;SDS011;19894;48.452;11.494;2022-07-23T11:17:29;1.50;;;1.40;;
33563;SDS011;19894;48.452;11.494;2022-07-23T11:25:04;1.35;;;1.25;;
33563;SDS011;19894;48.452;11.494;2022-07-23T11:27:46;1.42;;;1.33;;
33563;SDS011;19894;48.452;11.494;2022-07-23T11:32:54;1.60;;;1.50;;
33563;SDS011;19894;48.452;11.494;2022-07-23T11:35:44;1.63;;;1.42;;
33563;SDS011;19894;48.452;11.494;2022-07-23T11:40:50;1.60;;;1.50;;
33563;SDS011;19894;48.452;11.494;2022-07-23T11:43:18;1.60;;;1.50;;
33563;SDS011;19894;48.452;11.494;2022-07-23T11:45:45;1.60;;;1.50;;
33563;SDS011;19894;48.452;11.494;2022-07-23T11:48:20;1.48;;;1.38;;
33563;SDS011;19894;48.452;11.494;2022-07-23T11:50:47;1.17;;;1.10;;
33563;SDS011;19894;48.452;11.494;2022-07-23T11:53:20;1.40;;;1.30;;
33563;SDS011;19894;48.452;11.494;2022-07-23T11:55:50;1.65;;;1.55;;
33563;SDS011;19894;48.452;11.494;2022-07-23T11:58:16;1.45;;;1.35;;
33563;SDS011;19894;48.452;11.494;2022-07-23T12:00:42;1.50;;;1.30;;
33563;SDS011;19894;48.452;11.494;2022-07-23T12:03:08;1.23;;;1.13;;
33563;SDS011;19894;48.452;11.494;2022-07-23T12:05:34;1.60;;;1.50;;
33563;SDS011;19894;48.452;11.494;2022-07-23T12:08:05;1.80;;;1.70;;
33563;SDS011;19894;48.452;11.494;2022-07-23T12:10:34;1.45;;;1.35;;
33563;SDS011;19894;48.452;11.494;2022-07-23T12:13:19;1.60;;;1.50;;
33563;SDS011;19894;48.452;11.494;2022-07-23T12:15:50;1.77;;;1.50;;
33563;SDS011;19894;48.452;11.494;2022-07-23T12:18:19;1.70;;;1.60;;
33563;SDS011;19894;48.452;11.494;2022-07-23T12:20:50;1.77;;;1.67;;
33563;SDS011;19894;48.452;11.494;2022-07-23T12:23:22;1.70;;;1.60;;
33563;SDS011;19894;48.452;11.494;2022-07-23T12:25:50;1.73;;;1.63;;
33563;SDS011;19894;48.452;11.494;2022-07-23T12:28:37;1.42;;;1.33;;
33563;SDS011;19894;48.452;11.494;2022-07-23T12:31:02;2.25;;;2.05;;
33563;SDS011;19894;48.452;11.494;2022-07-23T12:33:32;1.50;;;1.40;;
33563;SDS011;19894;48.452;11.494;2022-07-23T12:36:03;1.70;;;1.60;;
33563;SDS011;19894;48.452;11.494;2022-07-23T12:38:46;1.38;;;1.27;;
33563;SDS011;19894;48.452;11.494;2022-07-23T12:41:13;1.42;;;1.33;;
33563;SDS011;19894;48.452;11.494;2022-07-23T12:43:40;1.73;;;1.63;;
33563;SDS011;19894;48.452;11.494;2022-07-23T12:46:12;1.92;;;1.80;;
33563;SDS011;19894;48.452;11.494;2022-07-23T12:51:15;1.75;;;1.65;;
33563;SDS011;19894;48.452;11.494;2022-07-23T12:53:48;1.65;;;1.55;;
33563;SDS011;19894;48.452;11.494;2022-07-23T12:56:28;1.55;;;1.45;;
33563;SDS011;19894;48.452;11.494;2022-07-23T12:59:04;1.58;;;1.48;;
33563;SDS011;19894;48.452;11.494;2022-07-23T13:04:06;1.80;;;1.70;;
33563;SDS011;19894;48.452;11.494;2022-07-23T13:06:33;1.60;;;1.50;;
33563;SDS011;19894;48.452;11.494;2022-07-23T13:09:01;2.38;;;2.17;;
33563;SDS011;19894;48.452;11.494;2022-07-23T13:11:27;1.52;;;1.42;;
33563;SDS011;19894;48.452;11.494;2022-07-23T13:13:53;1.70;;;1.60;;
33563;SDS011;19894;48.452;11.494;2022-07-23T13:16:18;1.52;;;1.42;;
33563;SDS011;19894;48.452;11.494;2022-07-23T13:18:44;1.85;;;1.75;;
33563;SDS011;19894;48.452;11.494;2022-07-23T13:21:10;1.83;;;1.73;;
33563;SDS011;19894;48.452;11.494;2022-07-23T13:23:36;2.03;;;1.85;;
33563;SDS011;19894;48.452;11.494;2022-07-23T13:26:01;2.35;;;2.15;;
33563;SDS011;19894;48.452;11.494;2022-07-23T13:28:27;1.55;;;1.45;;
33563;SDS011;19894;48.452;11.494;2022-07-23T13:30:53;1.55;;;1.45;;
33563;SDS011;19894;48.452;11.494;2022-07-23T13:33:19;2.10;;;1.90;;
33563;SDS011;19894;48.452;11.494;2022-07-23T13:35:46;2.28;;;2.08;;
33563;SDS011;19894;48.452;11.494;2022-07-23T13:38:12;1.90;;;1.80;;
33563;SDS011;19894;48.452;11.494;2022-07-23T13:40:39;1.83;;;1.70;;
33563;SDS011;19894;48.452;11.494;2022-07-23T13:43:07;2.17;;;1.90;;
33563;SDS011;19894;48.452;11.494;2022-07-23T13:45:34;1.45;;;1.30;;
33563;SDS011;19894;48.452;11.494;2022-07-23T13:48:00;1.85;;;1.75;;
33563;SDS011;19894;48.452;11.494;2022-07-23T13:50:27;1.70;;;1.60;;
33563;SDS011;19894;48.452;11.494;2022-07-23T13:52:52;2.55;;;2.22;;
33563;SDS011;19894;48.452;11.494;2022-07-23T13:55:18;1.67;;;1.58;;
33563;SDS011;19894;48.452;11.494;2022-07-23T13:57:44;1.90;;;1.80;;
33563;SDS011;19894;48.452;11.494;2022-07-23T14:00:10;2.10;;;1.90;;
33563;SDS011;19894;48.452;11.494;2022-07-23T14:02:37;1.88;;;1.63;;
33563;SDS011;19894;48.452;11.494;2022-07-23T14:05:04;2.33;;;1.98;;
33563;SDS011;19894;48.452;11.494;2022-07-23T14:07:31;2.15;;;1.95;;
33563;SDS011;19894;48.452;11.494;2022-07-23T14:09:56;1.90;;;1.80;;
33563;SDS011;19894;48.452;11.494;2022-07-23T14:12:22;1.90;;;1.80;;
33563;SDS011;19894;48.452;11.494;2022-07-23T14:14:47;1.95;;;1.77;;
33563;SDS011;19894;48.452;11.494;2022-07-23T14:17:13;1.75;;;1.65;;
33563;SDS011;19894;48.452;11.494;2022-07-23T14:19:39;1.80;;;1.70;;
33563;SDS011;19894;48.452;11.494;2022-07-23T14:22:04;1.88;;;1.77;;
33563;SDS011;19894;48.452;11.494;2022-07-23T14:24:30;1.95;;;1.80;;
33563;SDS011;19894;48.452;11.494;2022-07-23T14:26:56;2.50;;;2.30;;
33563;SDS011;19894;48.452;11.494;2022-07-23T14:29:21;2.92;;;2.25;;
33563;SDS011;19894;48.452;11.494;2022-07-23T14:31:47;2.25;;;2.05;;
33563;SDS011;19894;48.452;11.494;2022-07-23T14:34:13;2.10;;;1.90;;
33563;SDS011;19894;48.452;11.494;2022-07-23T14:36:39;2.17;;;2.00;;
33563;SDS011;19894;48.452;11.494;2022-07-23T14:39:04;2.47;;;2.28;;
33563;SDS011;19894;48.452;11.494;2022-07-23T14:41:30;1.75;;;1.65;;
33563;SDS011;19894;48.452;11.494;2022-07-23T14:43:56;1.83;;;1.70;;
33563;SDS011;19894;48.452;11.494;2022-07-23T14:46:21;1.92;;;1.83;;
33563;SDS011;19894;48.452;11.494;2022-07-23T14:48:47;2.30;;;2.10;;
33563;SDS011;19894;48.452;11.494;2022-07-23T14:51:13;2.22;;;2.03;;
33563;SDS011;19894;48.452;11.494;2022-07-23T14:53:38;2.35;;;2.13;;
33563;SDS011;19894;48.452;11.494;2022-07-23T14:56:04;1.83;;;1.67;;
33563;SDS011;19894;48.452;11.494;2022-07-23T14:58:30;1.70;;;1.60;;
33563;SDS011;19894;48.452;11.494;2022-07-23T15:00:55;2.10;;;1.90;;
33563;SDS011;19894;48.452;11.494;2022-07-23T15:03:21;1.92;;;1.83;;
33563;SDS011;19894;48.452;11.494;2022-07-23T15:05:47;2.05;;;1.85;;
33563;SDS011;19894;48.452;11.494;2022-07-23T15:08:12;2.22;;;1.80;;
33563;SDS011;19894;48.452;11.494;2022-07-23T15:10:38;1.48;;;1.38;;
33563;SDS011;19894;48.452;11.494;2022-07-23T15:13:03;1.70;;;1.60;;
33563;SDS011;19894;48.452;11.494;2022-07-23T15:15:29;1.75;;;1.65;;
33563;SDS011;19894;48.452;11.494;2022-07-23T15:17:55;2.15;;;1.95;;
33563;SDS011;19894;48.452;11.494;2022-07-23T15:20:21;2.05;;;1.90;;